createdAt,value
2023-04-24T00:01:56.293Z,28.50
2023-04-24T00:04:46.130Z,31.70
2023-04-24T00:07:37.012Z,27.15
2023-04-24T00:10:26.312Z,32.15
2023-04-24T00:13:15.531Z,27.27
2023-04-24T00:16:06.386Z,32.65
2023-04-24T00:18:55.698Z,29.67
2023-04-24T00:21:45.025Z,29.83
2023-04-24T00:24:36.031Z,25.92
2023-04-24T00:27:25.661Z,26.42
2023-04-24T00:30:15.399Z,29.30
2023-04-24T00:33:05.002Z,25.10
2023-04-24T00:35:54.200Z,28.17
2023-04-24T00:38:43.537Z,27.75
2023-04-24T00:41:34.176Z,24.13
2023-04-24T00:44:23.716Z,24.95
2023-04-24T00:47:14.123Z,25.52
2023-04-24T00:50:07.129Z,27.35
2023-04-24T00:52:57.388Z,29.52
2023-04-24T00:55:47.149Z,25.30
2023-04-24T00:58:37.945Z,26.27
2023-04-24T01:01:27.342Z,26.35
2023-04-24T01:04:19.420Z,22.35
2023-04-24T01:07:11.743Z,25.38
2023-04-24T01:10:01.142Z,25.70
2023-04-24T01:12:50.445Z,20.80
2023-04-24T01:15:41.197Z,19.35
2023-04-24T01:18:31.080Z,24.95
2023-04-24T01:21:22.977Z,21.70
2023-04-24T01:24:15.173Z,21.35
2023-04-24T01:27:04.544Z,21.30
2023-04-24T01:29:54.659Z,21.48
2023-04-24T01:32:46.013Z,18.75
2023-04-24T01:35:35.592Z,21.60
2023-04-24T01:38:24.860Z,19.38
2023-04-24T01:41:15.532Z,21.38
2023-04-24T01:44:05.508Z,17.52
2023-04-24T01:46:55.263Z,19.48
2023-04-24T01:49:44.836Z,20.02
2023-04-24T01:52:37.189Z,20.55
2023-04-24T01:55:26.630Z,21.13
2023-04-24T01:58:17.431Z,21.80
2023-04-24T02:01:08.595Z,18.60
2023-04-24T02:03:57.860Z,19.35
2023-04-24T02:06:47.242Z,20.73
2023-04-24T02:09:36.594Z,21.95
2023-04-24T02:12:25.930Z,17.70
2023-04-24T02:15:16.533Z,19.58
2023-04-24T02:18:05.986Z,21.02
2023-04-24T02:20:55.558Z,21.40
2023-04-24T02:23:44.759Z,21.02
2023-04-24T02:26:35.817Z,23.70
2023-04-24T02:29:25.006Z,22.88
2023-04-24T02:32:16.875Z,23.65
2023-04-24T02:35:07.503Z,22.63
2023-04-24T02:37:56.846Z,23.42
2023-04-24T02:40:46.098Z,22.35
2023-04-24T02:43:35.623Z,23.60
2023-04-24T02:46:25.027Z,23.67
2023-04-24T02:49:15.801Z,23.30
2023-04-24T02:52:05.070Z,21.45
2023-04-24T02:54:55.966Z,19.95
2023-04-24T02:57:45.476Z,22.10
2023-04-24T03:00:35.120Z,22.15
2023-04-24T03:03:25.302Z,21.27
2023-04-24T03:06:16.660Z,23.83
2023-04-24T03:09:06.367Z,19.60
2023-04-24T03:11:56.685Z,21.15
2023-04-24T03:14:47.870Z,18.50
2023-04-24T03:17:38.143Z,19.05
2023-04-24T03:20:27.493Z,18.73
2023-04-24T03:23:20.786Z,21.88
2023-04-24T03:26:10.610Z,19.90
2023-04-24T03:29:05.680Z,19.30
2023-04-24T03:31:55.016Z,20.65
2023-04-24T03:34:44.430Z,16.98
2023-04-24T03:37:36.886Z,20.90
2023-04-24T03:41:00.030Z,18.85
2023-04-24T03:44:15.648Z,21.63
2023-04-24T03:47:05.597Z,20.85
2023-04-24T03:49:56.854Z,21.25
2023-04-24T03:52:46.337Z,20.33
2023-04-24T03:55:45.224Z,17.63
2023-04-24T03:58:36.373Z,15.65
2023-04-24T04:01:25.728Z,20.50
2023-04-24T04:04:23.146Z,19.08
2023-04-24T04:07:14.064Z,22.27
2023-04-24T04:10:03.566Z,19.17
2023-04-24T04:12:52.770Z,13.90
2023-04-24T04:15:43.633Z,13.45
2023-04-24T04:18:33.244Z,12.15
2023-04-24T04:21:23.619Z,8.88
2023-04-24T04:24:18.537Z,8.82
2023-04-24T04:27:09.993Z,8.90
2023-04-24T04:30:10.860Z,9.57
2023-04-24T04:33:12.282Z,8.48
2023-04-24T04:36:03.526Z,8.45
2023-04-24T04:38:55.786Z,10.52
2023-04-24T04:42:24.755Z,14.25
2023-04-24T04:45:14.335Z,12.63
2023-04-24T04:48:24.085Z,10.30
2023-04-24T04:51:14.698Z,16.17
2023-04-24T04:54:04.136Z,20.05
2023-04-24T04:56:53.595Z,17.17
2023-04-24T04:59:43.306Z,9.57
2023-04-24T05:02:39.094Z,13.48
2023-04-24T05:05:30.047Z,6.78
2023-04-24T05:08:27.074Z,6.43
2023-04-24T05:11:17.266Z,11.23
2023-04-24T05:14:06.726Z,12.57
2023-04-24T05:17:01.407Z,9.02
2023-04-24T05:19:50.795Z,14.35
2023-04-24T05:22:41.751Z,14.38
2023-04-24T05:25:33.310Z,16.77
2023-04-24T05:28:29.452Z,12.27
2023-04-24T05:31:27.805Z,15.70
2023-04-24T05:34:17.846Z,13.40
2023-04-24T05:37:10.956Z,13.75
2023-04-24T05:40:01.764Z,12.57
2023-04-24T05:42:51.040Z,16.08
2023-04-24T05:45:40.773Z,13.52
2023-04-24T05:48:29.970Z,15.75
2023-04-24T05:51:19.236Z,18.60
2023-04-24T05:54:08.814Z,15.80
2023-04-24T05:56:59.812Z,15.65
2023-04-24T06:00:00.209Z,14.00
2023-04-24T06:02:50.179Z,11.23
2023-04-24T06:05:39.877Z,8.45
2023-04-24T06:08:29.632Z,7.75
2023-04-24T06:11:19.385Z,13.10
2023-04-24T06:14:10.549Z,8.77
2023-04-24T06:17:00.058Z,15.20
2023-04-24T06:19:56.823Z,10.77
2023-04-24T06:22:47.952Z,14.43
2023-04-24T06:25:37.391Z,11.82
2023-04-24T06:28:27.248Z,15.82
2023-04-24T06:31:17.921Z,12.93
2023-04-24T06:34:07.306Z,9.80
2023-04-24T06:36:57.169Z,10.73
2023-04-24T06:39:46.580Z,16.40
2023-04-24T06:42:36.086Z,10.18
2023-04-24T06:45:27.006Z,9.98
2023-04-24T06:48:17.877Z,11.70
2023-04-24T06:51:07.321Z,7.72
2023-04-24T06:53:57.103Z,6.63
2023-04-24T06:56:47.758Z,5.53
2023-04-24T06:59:39.470Z,9.10
2023-04-24T07:02:29.119Z,6.25
2023-04-24T07:05:21.178Z,6.78
2023-04-24T07:08:12.527Z,9.98
2023-04-24T07:11:02.270Z,17.33
2023-04-24T07:13:51.667Z,5.07
2023-04-24T07:16:41.346Z,6.18
2023-04-24T07:19:30.793Z,9.70
2023-04-24T07:22:21.967Z,7.00
2023-04-24T07:25:11.921Z,7.43
2023-04-24T07:28:01.483Z,7.53
2023-04-24T07:30:50.759Z,10.40
2023-04-24T07:33:40.299Z,9.98
2023-04-24T07:36:29.614Z,7.30
2023-04-24T07:39:22.455Z,14.52
2023-04-24T07:42:12.015Z,12.52
2023-04-24T07:45:01.603Z,10.60
2023-04-24T07:47:52.560Z,16.35
2023-04-24T07:50:41.847Z,13.40
2023-04-24T07:53:31.074Z,11.63
2023-04-24T07:56:21.719Z,14.02
2023-04-24T07:59:11.399Z,12.98
2023-04-24T08:02:02.398Z,10.70
2023-04-24T08:04:52.153Z,9.40
2023-04-24T08:07:43.761Z,11.38
2023-04-24T08:10:33.292Z,11.68
2023-04-24T08:13:24.457Z,8.68
2023-04-24T08:16:13.998Z,12.60
2023-04-24T08:19:03.422Z,15.35
2023-04-24T08:21:52.748Z,13.18
2023-04-24T08:24:41.994Z,12.40
2023-04-24T08:27:31.275Z,8.93
2023-04-24T08:30:22.030Z,10.15
2023-04-24T08:33:11.368Z,9.85
2023-04-24T08:36:01.833Z,10.38
2023-04-24T08:38:51.462Z,12.50
2023-04-24T08:41:44.045Z,8.15
2023-04-24T08:44:34.716Z,11.25
2023-04-24T08:47:26.672Z,7.00
2023-04-24T08:50:16.399Z,11.48
2023-04-24T08:53:06.274Z,10.38
2023-04-24T08:55:58.182Z,9.50
2023-04-24T08:58:47.779Z,8.05
2023-04-24T09:01:40.891Z,9.23
2023-04-24T09:07:21.811Z,9.93
2023-04-24T09:10:11.487Z,9.98
2023-04-24T09:13:03.663Z,8.77
2023-04-24T09:15:53.405Z,11.15
2023-04-24T09:18:42.781Z,8.98
2023-04-24T09:21:37.074Z,8.90
2023-04-24T09:24:26.743Z,21.17
2023-04-24T09:27:17.691Z,11.10
2023-04-24T09:30:09.362Z,6.20
2023-04-24T09:33:14.745Z,11.48
2023-04-24T09:36:05.015Z,5.63
2023-04-24T09:39:00.467Z,8.05
2023-04-24T09:41:51.772Z,7.93
2023-04-24T09:44:41.727Z,5.97
2023-04-24T09:47:38.951Z,11.88
2023-04-24T09:50:28.142Z,7.40
2023-04-24T09:53:17.454Z,8.68
2023-04-24T09:56:11.446Z,11.52
2023-04-24T09:59:08.324Z,9.57
2023-04-24T10:01:59.853Z,13.48
2023-04-24T10:04:57.958Z,11.25
2023-04-24T10:07:49.576Z,10.68
2023-04-24T10:10:42.855Z,11.75
2023-04-24T10:13:34.585Z,15.60
2023-04-24T10:16:24.766Z,9.90
2023-04-24T10:19:14.262Z,9.07
2023-04-24T10:22:05.996Z,10.55
2023-04-24T10:24:56.487Z,8.77
2023-04-24T10:27:47.528Z,9.88
2023-04-24T10:30:38.440Z,9.32
2023-04-24T10:33:29.352Z,13.82
2023-04-24T10:36:20.164Z,11.43
2023-04-24T10:39:14.115Z,6.28
2023-04-24T10:42:03.492Z,9.20
2023-04-24T10:44:53.168Z,11.40
2023-04-24T10:47:45.386Z,7.68
2023-04-24T10:50:47.035Z,8.30
2023-04-24T10:53:38.000Z,10.98
2023-04-24T10:56:28.295Z,9.15
2023-04-24T10:59:27.525Z,8.68
2023-04-24T11:02:18.218Z,8.73
2023-04-24T11:05:12.241Z,18.48
2023-04-24T11:08:17.289Z,9.60
2023-04-24T11:11:12.580Z,10.13
2023-04-24T11:14:10.200Z,7.05
2023-04-24T11:17:00.859Z,9.75
2023-04-24T11:19:54.665Z,10.02
2023-04-24T11:22:46.813Z,6.60
2023-04-24T11:25:37.808Z,12.30
2023-04-24T11:28:27.788Z,9.75
2023-04-24T11:31:40.736Z,7.15
2023-04-24T11:34:30.170Z,14.35
2023-04-24T11:37:19.870Z,12.07
2023-04-24T11:40:13.351Z,9.60
2023-04-24T11:43:03.267Z,9.57
2023-04-24T11:45:52.917Z,9.20
2023-04-24T11:48:49.505Z,16.40
2023-04-24T11:51:52.185Z,19.05
2023-04-24T11:54:51.276Z,12.75
2023-04-24T11:57:45.462Z,10.45
2023-04-24T12:00:36.759Z,10.48
2023-04-24T12:03:26.379Z,10.25
2023-04-24T12:06:16.041Z,9.73
2023-04-24T12:09:17.355Z,13.50
2023-04-24T12:12:11.265Z,9.27
2023-04-24T12:15:08.985Z,13.43
2023-04-24T12:17:59.044Z,11.25
2023-04-24T12:20:48.358Z,15.95
2023-04-24T12:23:38.355Z,9.07
2023-04-24T12:26:30.153Z,6.50
2023-04-24T12:29:22.830Z,7.95
2023-04-24T12:32:20.293Z,10.02
2023-04-24T12:35:10.766Z,10.13
2023-04-24T12:38:09.111Z,13.00
2023-04-24T12:41:06.421Z,12.68
2023-04-24T12:43:56.767Z,8.30
2023-04-24T12:46:46.638Z,10.70
2023-04-24T12:49:37.458Z,13.75
2023-04-24T12:52:27.773Z,8.75
2023-04-24T12:55:17.602Z,11.23
2023-04-24T12:58:06.874Z,15.82
2023-04-24T13:00:56.273Z,10.95
2023-04-24T13:03:46.472Z,14.43
2023-04-24T13:06:37.496Z,8.55
2023-04-24T13:09:26.683Z,7.90
2023-04-24T13:12:16.002Z,8.50
2023-04-24T13:15:06.328Z,8.90
2023-04-24T13:17:56.415Z,7.20
2023-04-24T13:20:46.950Z,11.35
2023-04-24T13:23:37.659Z,10.60
2023-04-24T13:26:27.171Z,11.93
2023-04-24T13:29:16.338Z,9.95
2023-04-24T13:32:06.698Z,8.02
2023-04-24T13:34:56.077Z,9.52
2023-04-24T13:37:45.342Z,11.52
2023-04-24T13:40:36.577Z,8.00
2023-04-24T13:43:25.805Z,10.63
2023-04-24T13:46:15.234Z,9.65
2023-04-24T13:49:05.798Z,7.53
2023-04-24T13:51:56.357Z,8.88
2023-04-24T13:54:45.788Z,10.00
2023-04-24T13:57:36.695Z,11.18
2023-04-24T14:00:26.286Z,10.57
2023-04-24T14:03:15.717Z,12.90
2023-04-24T14:06:05.301Z,9.88
2023-04-24T14:08:54.945Z,10.45
2023-04-24T14:11:44.461Z,9.82
2023-04-24T14:14:35.309Z,11.02
2023-04-24T14:17:24.722Z,10.98
2023-04-24T14:20:15.255Z,9.75
2023-04-24T14:23:05.085Z,13.35
2023-04-24T14:25:54.504Z,8.88
2023-04-24T14:28:43.880Z,12.25
2023-04-24T14:31:34.924Z,13.88
2023-04-24T14:34:24.189Z,10.57
2023-04-24T14:37:13.733Z,14.77
2023-04-24T14:40:15.758Z,10.00
2023-04-24T14:43:10.120Z,9.23
2023-04-24T14:45:59.392Z,9.63
2023-04-24T14:48:50.168Z,10.77
2023-04-24T14:51:39.665Z,7.88
2023-04-24T14:54:30.310Z,11.55
2023-04-24T14:57:19.695Z,11.90
2023-04-24T15:00:11.237Z,6.78
2023-04-24T15:03:01.168Z,10.00
2023-04-24T15:05:52.925Z,6.18
2023-04-24T15:08:43.123Z,8.35
2023-04-24T15:11:32.519Z,6.60
2023-04-24T15:14:21.911Z,9.20
2023-04-24T15:17:11.748Z,9.13
2023-04-24T15:20:02.002Z,8.27
2023-04-24T15:22:53.044Z,7.43
2023-04-24T15:25:42.628Z,8.25
2023-04-24T15:28:32.020Z,9.40
2023-04-24T15:31:21.530Z,16.20
2023-04-24T15:34:10.909Z,10.38
2023-04-24T15:37:00.197Z,11.77
2023-04-24T15:39:51.843Z,11.32
2023-04-24T15:42:41.221Z,8.55
2023-04-24T15:45:31.300Z,7.05
2023-04-24T15:48:21.561Z,12.70
2023-04-24T15:51:10.990Z,10.40
2023-04-24T15:54:00.794Z,10.07
2023-04-24T15:56:52.844Z,9.23
2023-04-24T15:59:42.115Z,9.10
2023-04-24T16:02:31.594Z,14.73
2023-04-24T16:05:22.926Z,9.68
2023-04-24T16:08:14.250Z,8.07
2023-04-24T16:11:03.688Z,17.10
2023-04-24T16:13:54.403Z,11.25
2023-04-24T16:16:43.816Z,9.27
2023-04-24T16:19:34.713Z,12.55
2023-04-24T16:22:24.101Z,9.75
2023-04-24T16:25:13.586Z,11.65
2023-04-24T16:28:03.275Z,13.20
2023-04-24T16:30:54.073Z,11.55
2023-04-24T16:33:43.645Z,8.43
2023-04-24T16:36:33.037Z,8.25
2023-04-24T16:39:22.926Z,18.23
2023-04-24T16:42:13.340Z,13.82
2023-04-24T16:45:03.103Z,27.17
2023-04-24T16:47:54.606Z,13.98
2023-04-24T16:50:43.936Z,11.55
2023-04-24T16:53:33.178Z,12.82
2023-04-24T16:56:22.609Z,11.65
2023-04-24T16:59:11.968Z,8.98
2023-04-24T17:02:01.271Z,11.68
2023-04-24T17:04:52.225Z,8.43
2023-04-24T17:07:41.831Z,10.43
2023-04-24T17:10:31.144Z,9.25
2023-04-24T17:13:20.521Z,10.65
2023-04-24T17:16:09.889Z,10.55
2023-04-24T17:18:59.330Z,8.48
2023-04-24T17:21:49.964Z,13.43
2023-04-24T17:24:39.484Z,9.95
2023-04-24T17:27:29.248Z,12.95
2023-04-24T17:30:18.771Z,19.15
2023-04-24T17:33:08.052Z,11.50
2023-04-24T17:35:58.145Z,14.55
2023-04-24T17:38:49.117Z,15.15
2023-04-24T17:41:38.717Z,9.05
2023-04-24T17:44:28.050Z,10.40
2023-04-24T17:47:17.274Z,9.95
2023-04-24T17:50:07.666Z,10.10
2023-04-24T17:52:57.011Z,16.35
2023-04-24T17:55:47.837Z,10.10
2023-04-24T17:58:37.327Z,9.23
2023-04-24T18:01:28.104Z,8.23
2023-04-24T18:04:18.633Z,12.27
2023-04-24T18:07:07.939Z,14.48
2023-04-24T18:09:57.327Z,8.55
2023-04-24T18:12:49.120Z,8.68
2023-04-24T18:15:42.127Z,9.63
2023-04-24T18:18:31.374Z,6.90
2023-04-24T18:21:21.021Z,8.77
2023-04-24T18:24:10.898Z,8.23
2023-04-24T18:27:00.272Z,11.18
2023-04-24T18:29:50.943Z,10.07
2023-04-24T18:32:40.672Z,7.53
2023-04-24T18:35:29.989Z,16.13
2023-04-24T18:38:19.390Z,10.48
2023-04-24T18:41:08.774Z,11.32
2023-04-24T18:43:59.417Z,9.35
2023-04-24T18:46:50.207Z,8.20
2023-04-24T18:49:39.792Z,8.57
2023-04-24T18:52:29.181Z,9.13
2023-04-24T18:55:18.489Z,8.82
2023-04-24T18:58:08.197Z,6.88
2023-04-24T19:00:57.627Z,9.73
2023-04-24T19:03:48.647Z,8.75
2023-04-24T19:06:38.178Z,10.88
2023-04-24T19:09:27.570Z,11.32
2023-04-24T19:12:17.816Z,7.38
2023-04-24T19:15:12.026Z,9.05
2023-04-24T19:18:01.362Z,8.45
2023-04-24T19:20:52.571Z,8.98
2023-04-24T19:23:43.931Z,9.07
2023-04-24T19:26:33.124Z,12.18
2023-04-24T19:29:22.436Z,6.63
2023-04-24T19:32:11.719Z,9.07
2023-04-24T19:35:01.130Z,29.30
2023-04-24T19:37:51.848Z,8.82
2023-04-24T19:40:41.200Z,7.95
2023-04-24T19:43:30.443Z,7.90
2023-04-24T19:46:19.837Z,9.68
2023-04-24T19:49:09.282Z,10.10
2023-04-24T19:51:58.560Z,11.07
2023-04-24T19:54:51.263Z,9.43
2023-04-24T19:57:40.859Z,11.50
2023-04-24T20:00:30.148Z,8.43
2023-04-24T20:03:32.039Z,8.63
2023-04-24T20:06:22.557Z,6.70
2023-04-24T20:09:11.821Z,9.70
2023-04-24T20:12:02.955Z,13.40
2023-04-24T20:14:52.489Z,9.27
2023-04-24T20:17:41.944Z,6.13
2023-04-24T20:20:31.361Z,8.43
2023-04-24T20:23:20.598Z,8.65
2023-04-24T20:26:11.346Z,11.05
2023-04-24T20:29:02.044Z,10.77
2023-04-24T20:31:51.674Z,11.23
2023-04-24T20:34:41.058Z,12.20
2023-04-24T20:37:30.430Z,15.05
2023-04-24T20:40:19.806Z,15.65
2023-04-24T20:43:09.142Z,12.40
2023-04-24T20:45:59.969Z,16.02
2023-04-24T20:48:49.460Z,17.92
2023-04-24T20:51:39.017Z,17.67
2023-04-24T20:54:28.640Z,18.83
2023-04-24T20:57:17.958Z,16.42
2023-04-24T21:00:09.106Z,18.45
2023-04-24T21:02:59.947Z,16.25
2023-04-24T21:05:49.589Z,23.73
2023-04-24T21:08:38.902Z,24.77
2023-04-24T21:11:28.068Z,23.60
2023-04-24T21:14:17.322Z,25.30
2023-04-24T21:17:06.617Z,30.52
2023-04-24T21:19:57.598Z,26.95
2023-04-24T21:22:46.894Z,31.58
2023-04-24T21:25:37.040Z,31.25
2023-04-24T21:28:27.008Z,31.40
2023-04-24T21:31:16.691Z,38.33
2023-04-24T21:34:05.998Z,42.92
2023-04-24T21:36:56.570Z,44.40
2023-04-24T21:39:46.559Z,41.33
2023-04-24T21:42:36.066Z,42.72
2023-04-24T21:45:25.665Z,56.15
2023-04-24T21:48:15.114Z,44.67
2023-04-24T21:51:04.462Z,49.53
2023-04-24T21:53:55.267Z,47.40
2023-04-24T21:56:45.742Z,47.15
2023-04-24T21:59:36.215Z,38.13
2023-04-24T22:02:27.119Z,40.40
2023-04-24T22:05:18.496Z,42.30
2023-04-24T22:08:11.734Z,36.70
2023-04-24T22:11:02.746Z,36.95
2023-04-24T22:13:52.729Z,36.63
2023-04-24T22:16:42.290Z,33.25
2023-04-24T22:19:32.274Z,36.10
2023-04-24T22:22:21.950Z,36.80
2023-04-24T22:25:11.711Z,37.20
2023-04-24T22:28:02.430Z,37.50
2023-04-24T22:30:51.852Z,34.67
2023-04-24T22:33:41.130Z,39.15
2023-04-24T22:36:31.753Z,39.13
2023-04-24T22:39:21.838Z,32.47
2023-04-24T22:42:11.362Z,30.80
2023-04-24T22:45:02.151Z,34.85
2023-04-24T22:47:51.735Z,32.50
2023-04-24T22:50:41.005Z,32.92
2023-04-24T22:53:30.239Z,46.08
2023-04-24T22:56:19.851Z,33.97
2023-04-24T22:59:09.147Z,34.22
2023-04-24T23:02:01.103Z,32.08
2023-04-24T23:04:50.482Z,33.55
2023-04-24T23:07:39.989Z,38.45
2023-04-24T23:10:30.138Z,36.15
2023-04-24T23:13:20.216Z,37.22
2023-04-24T23:16:10.049Z,27.33
2023-04-24T23:19:00.752Z,25.65
2023-04-24T23:21:50.650Z,23.85
2023-04-24T23:24:39.853Z,19.80
2023-04-24T23:27:29.238Z,21.05
2023-04-24T23:30:18.679Z,22.90
2023-04-24T23:33:08.002Z,23.48
2023-04-24T23:35:59.334Z,22.15
2023-04-24T23:38:50.511Z,24.38
2023-04-24T23:41:40.066Z,26.23
2023-04-24T23:44:29.872Z,29.38
2023-04-24T23:47:19.394Z,26.40
2023-04-24T23:50:09.441Z,32.90
2023-04-24T23:53:01.235Z,28.98
2023-04-24T23:55:50.520Z,33.30
2023-04-24T23:58:39.808Z,28.27
